sensor_id;sensor_type;location;lat;lon;timestamp;temperature;humidity
13426;DHT22;6785;57.918;12.530;2023-03-03T00:01:00;-1.20;99.90
13426;DHT22;6785;57.918;12.530;2023-03-03T00:03:26;-1.30;99.90
13426;DHT22;6785;57.918;12.530;2023-03-03T00:05:55;-1.30;99.90
13426;DHT22;6785;57.918;12.530;2023-03-03T00:08:21;-1.30;99.90
13426;DHT22;6785;57.918;12.530;2023-03-03T00:10:48;-1.30;99.90
13426;DHT22;6785;57.918;12.530;2023-03-03T00:13:17;-1.30;99.90
13426;DHT22;6785;57.918;12.530;2023-03-03T00:15:45;-1.20;99.90
13426;DHT22;6785;57.918;12.530;2023-03-03T00:18:21;-1.20;99.90
13426;DHT22;6785;57.918;12.530;2023-03-03T00:20:51;-1.20;99.90
13426;DHT22;6785;57.918;12.530;2023-03-03T00:23:35;-1.20;99.90
13426;DHT22;6785;57.918;12.530;2023-03-03T00:26:15;-1.30;99.90
13426;DHT22;6785;57.918;12.530;2023-03-03T00:28:45;-1.20;99.90
13426;DHT22;6785;57.918;12.530;2023-03-03T00:31:16;-1.20;99.90
13426;DHT22;6785;57.918;12.530;2023-03-03T00:33:47;-1.20;99.90
13426;DHT22;6785;57.918;12.530;2023-03-03T00:36:36;-1.20;99.90
13426;DHT22;6785;57.918;12.530;2023-03-03T00:39:18;-1.20;99.90
13426;DHT22;6785;57.918;12.530;2023-03-03T00:41:47;-1.20;99.90
13426;DHT22;6785;57.918;12.530;2023-03-03T00:44:34;-1.20;99.90
13426;DHT22;6785;57.918;12.530;2023-03-03T00:47:23;-1.20;99.90
13426;DHT22;6785;57.918;12.530;2023-03-03T00:49:50;-1.20;99.90
13426;DHT22;6785;57.918;12.530;2023-03-03T00:52:18;-1.20;99.90
13426;DHT22;6785;57.918;12.530;2023-03-03T00:54:46;-1.10;99.90
13426;DHT22;6785;57.918;12.530;2023-03-03T00:57:13;-1.10;99.90
13426;DHT22;6785;57.918;12.530;2023-03-03T00:59:40;-1.10;99.90
13426;DHT22;6785;57.918;12.530;2023-03-03T01:02:07;-1.10;99.90
13426;DHT22;6785;57.918;12.530;2023-03-03T01:04:33;-1.20;99.90
13426;DHT22;6785;57.918;12.530;2023-03-03T01:07:00;-1.20;99.90
13426;DHT22;6785;57.918;12.530;2023-03-03T01:09:27;-1.10;99.90
13426;DHT22;6785;57.918;12.530;2023-03-03T01:11:55;-1.10;99.90
13426;DHT22;6785;57.918;12.530;2023-03-03T01:14:22;-1.10;99.90
13426;DHT22;6785;57.918;12.530;2023-03-03T01:16:49;-1.10;99.90
13426;DHT22;6785;57.918;12.530;2023-03-03T01:19:16;-1.10;99.90
13426;DHT22;6785;57.918;12.530;2023-03-03T01:21:43;-1.10;99.90
13426;DHT22;6785;57.918;12.530;2023-03-03T01:24:09;-1.10;99.90
13426;DHT22;6785;57.918;12.530;2023-03-03T01:26:36;-1.10;99.90
13426;DHT22;6785;57.918;12.530;2023-03-03T01:29:04;-1.10;99.90
13426;DHT22;6785;57.918;12.530;2023-03-03T01:31:31;-1.00;99.90
13426;DHT22;6785;57.918;12.530;2023-03-03T01:33:58;-1.00;99.90
13426;DHT22;6785;57.918;12.530;2023-03-03T01:36:26;-1.10;99.90
13426;DHT22;6785;57.918;12.530;2023-03-03T01:38:53;-1.10;99.90
13426;DHT22;6785;57.918;12.530;2023-03-03T01:41:20;-1.00;99.90
13426;DHT22;6785;57.918;12.530;2023-03-03T01:43:49;-1.00;99.90
13426;DHT22;6785;57.918;12.530;2023-03-03T01:46:41;-1.00;99.90
13426;DHT22;6785;57.918;12.530;2023-03-03T01:49:14;-1.00;99.90
13426;DHT22;6785;57.918;12.530;2023-03-03T01:51:46;-1.00;99.90
13426;DHT22;6785;57.918;12.530;2023-03-03T01:54:17;-1.00;99.90
13426;DHT22;6785;57.918;12.530;2023-03-03T01:56:45;-1.00;99.90
13426;DHT22;6785;57.918;12.530;2023-03-03T01:59:15;-0.90;99.90
13426;DHT22;6785;57.918;12.530;2023-03-03T02:01:46;-0.90;99.90
13426;DHT22;6785;57.918;12.530;2023-03-03T02:04:13;-0.90;99.90
13426;DHT22;6785;57.918;12.530;2023-03-03T02:06:42;-0.90;99.90
13426;DHT22;6785;57.918;12.530;2023-03-03T02:09:13;-0.90;99.90
13426;DHT22;6785;57.918;12.530;2023-03-03T02:11:43;-0.90;99.90
13426;DHT22;6785;57.918;12.530;2023-03-03T02:14:11;-0.80;99.90
13426;DHT22;6785;57.918;12.530;2023-03-03T02:16:38;-0.80;99.90
13426;DHT22;6785;57.918;12.530;2023-03-03T02:19:14;-0.90;99.90
13426;DHT22;6785;57.918;12.530;2023-03-03T02:21:44;-0.90;99.90
13426;DHT22;6785;57.918;12.530;2023-03-03T02:24:15;-0.90;99.90
13426;DHT22;6785;57.918;12.530;2023-03-03T02:26:47;-0.80;99.90
13426;DHT22;6785;57.918;12.530;2023-03-03T02:29:14;-0.80;99.90
13426;DHT22;6785;57.918;12.530;2023-03-03T02:31:41;-0.80;99.90
13426;DHT22;6785;57.918;12.530;2023-03-03T02:34:08;-0.80;99.90
13426;DHT22;6785;57.918;12.530;2023-03-03T02:36:37;-0.80;99.90
13426;DHT22;6785;57.918;12.530;2023-03-03T02:39:07;-0.90;99.90
13426;DHT22;6785;57.918;12.530;2023-03-03T02:41:39;-0.90;99.90
13426;DHT22;6785;57.918;12.530;2023-03-03T02:44:11;-1.00;99.90
13426;DHT22;6785;57.918;12.530;2023-03-03T02:46:40;-1.00;99.90
13426;DHT22;6785;57.918;12.530;2023-03-03T02:49:09;-1.10;99.90
13426;DHT22;6785;57.918;12.530;2023-03-03T02:51:36;-1.20;99.90
13426;DHT22;6785;57.918;12.530;2023-03-03T02:54:03;-1.20;99.90
13426;DHT22;6785;57.918;12.530;2023-03-03T02:56:30;-1.30;99.90
13426;DHT22;6785;57.918;12.530;2023-03-03T02:58:57;-1.30;99.90
13426;DHT22;6785;57.918;12.530;2023-03-03T03:01:26;-1.30;99.90
13426;DHT22;6785;57.918;12.530;2023-03-03T03:03:54;-1.30;99.90
13426;DHT22;6785;57.918;12.530;2023-03-03T03:06:20;-1.40;99.90
13426;DHT22;6785;57.918;12.530;2023-03-03T03:08:47;-1.30;99.90
13426;DHT22;6785;57.918;12.530;2023-03-03T03:11:14;-1.40;99.90
13426;DHT22;6785;57.918;12.530;2023-03-03T03:13:40;-1.40;99.90
13426;DHT22;6785;57.918;12.530;2023-03-03T03:16:07;-1.40;99.90
13426;DHT22;6785;57.918;12.530;2023-03-03T03:18:35;-1.40;99.90
13426;DHT22;6785;57.918;12.530;2023-03-03T03:21:07;-1.40;99.90
13426;DHT22;6785;57.918;12.530;2023-03-03T03:23:34;-1.50;99.90
13426;DHT22;6785;57.918;12.530;2023-03-03T03:26:01;-1.50;99.90
13426;DHT22;6785;57.918;12.530;2023-03-03T03:28:27;-1.60;99.90
13426;DHT22;6785;57.918;12.530;2023-03-03T03:30:54;-1.60;99.90
13426;DHT22;6785;57.918;12.530;2023-03-03T03:33:21;-1.60;99.90
13426;DHT22;6785;57.918;12.530;2023-03-03T03:35:50;-1.50;99.90
13426;DHT22;6785;57.918;12.530;2023-03-03T03:38:17;-1.50;99.90
13426;DHT22;6785;57.918;12.530;2023-03-03T03:40:44;-1.50;99.90
13426;DHT22;6785;57.918;12.530;2023-03-03T03:43:11;-1.50;99.90
13426;DHT22;6785;57.918;12.530;2023-03-03T03:45:38;-1.50;99.90
13426;DHT22;6785;57.918;12.530;2023-03-03T03:48:07;-1.50;99.90
13426;DHT22;6785;57.918;12.530;2023-03-03T03:50:33;-1.60;99.90
13426;DHT22;6785;57.918;12.530;2023-03-03T03:53:02;-1.60;99.90
13426;DHT22;6785;57.918;12.530;2023-03-03T03:55:29;-1.60;99.90
13426;DHT22;6785;57.918;12.530;2023-03-03T03:57:55;-1.60;99.90
13426;DHT22;6785;57.918;12.530;2023-03-03T04:00:23;-1.60;99.90
13426;DHT22;6785;57.918;12.530;2023-03-03T04:02:50;-1.60;99.90
13426;DHT22;6785;57.918;12.530;2023-03-03T04:05:17;-1.70;99.90
13426;DHT22;6785;57.918;12.530;2023-03-03T04:07:44;-1.70;99.90
13426;DHT22;6785;57.918;12.530;2023-03-03T04:10:12;-1.70;99.90
13426;DHT22;6785;57.918;12.530;2023-03-03T04:12:39;-1.70;99.90
13426;DHT22;6785;57.918;12.530;2023-03-03T04:15:08;-1.70;99.90
13426;DHT22;6785;57.918;12.530;2023-03-03T04:17:35;-1.70;99.90
13426;DHT22;6785;57.918;12.530;2023-03-03T04:20:02;-1.70;99.90
13426;DHT22;6785;57.918;12.530;2023-03-03T04:22:29;-1.70;99.90
13426;DHT22;6785;57.918;12.530;2023-03-03T04:24:58;-1.70;99.90
13426;DHT22;6785;57.918;12.530;2023-03-03T04:27:26;-1.70;99.90
13426;DHT22;6785;57.918;12.530;2023-03-03T04:29:53;-1.70;99.90
13426;DHT22;6785;57.918;12.530;2023-03-03T04:32:19;-1.70;99.90
13426;DHT22;6785;57.918;12.530;2023-03-03T04:34:46;-1.70;99.90
13426;DHT22;6785;57.918;12.530;2023-03-03T04:37:13;-1.70;99.90
13426;DHT22;6785;57.918;12.530;2023-03-03T04:39:39;-1.70;99.90
13426;DHT22;6785;57.918;12.530;2023-03-03T04:42:06;-1.80;99.90
13426;DHT22;6785;57.918;12.530;2023-03-03T04:44:35;-1.80;99.90
13426;DHT22;6785;57.918;12.530;2023-03-03T04:47:02;-1.80;99.90
13426;DHT22;6785;57.918;12.530;2023-03-03T04:49:29;-1.80;99.90
13426;DHT22;6785;57.918;12.530;2023-03-03T04:51:56;-1.80;99.90
13426;DHT22;6785;57.918;12.530;2023-03-03T04:54:23;-1.90;99.90
13426;DHT22;6785;57.918;12.530;2023-03-03T04:56:49;-1.90;99.90
13426;DHT22;6785;57.918;12.530;2023-03-03T04:59:16;-1.90;99.90
13426;DHT22;6785;57.918;12.530;2023-03-03T05:01:44;-2.00;99.90
13426;DHT22;6785;57.918;12.530;2023-03-03T05:04:11;-2.00;99.90
13426;DHT22;6785;57.918;12.530;2023-03-03T05:06:38;-2.00;99.90
13426;DHT22;6785;57.918;12.530;2023-03-03T05:09:05;-2.00;99.90
13426;DHT22;6785;57.918;12.530;2023-03-03T05:11:32;-2.00;99.90
13426;DHT22;6785;57.918;12.530;2023-03-03T05:13:58;-2.00;99.90
13426;DHT22;6785;57.918;12.530;2023-03-03T05:16:25;-2.10;99.90
13426;DHT22;6785;57.918;12.530;2023-03-03T05:18:53;-2.10;99.90
13426;DHT22;6785;57.918;12.530;2023-03-03T05:21:20;-2.10;99.90
13426;DHT22;6785;57.918;12.530;2023-03-03T05:23:47;-2.10;99.90
13426;DHT22;6785;57.918;12.530;2023-03-03T05:26:14;-2.10;99.90
13426;DHT22;6785;57.918;12.530;2023-03-03T05:28:41;-2.20;99.90
13426;DHT22;6785;57.918;12.530;2023-03-03T05:31:08;-2.20;99.90
13426;DHT22;6785;57.918;12.530;2023-03-03T05:33:34;-2.20;99.90
13426;DHT22;6785;57.918;12.530;2023-03-03T05:36:03;-2.20;99.90
13426;DHT22;6785;57.918;12.530;2023-03-03T05:38:30;-2.20;99.90
13426;DHT22;6785;57.918;12.530;2023-03-03T05:40:56;-2.20;99.90
13426;DHT22;6785;57.918;12.530;2023-03-03T05:43:23;-2.20;99.90
13426;DHT22;6785;57.918;12.530;2023-03-03T05:45:54;-2.10;99.90
13426;DHT22;6785;57.918;12.530;2023-03-03T05:48:20;-2.10;99.90
13426;DHT22;6785;57.918;12.530;2023-03-03T05:50:47;-2.20;99.90
13426;DHT22;6785;57.918;12.530;2023-03-03T05:53:15;-2.30;99.90
13426;DHT22;6785;57.918;12.530;2023-03-03T05:55:42;-2.30;99.90
13426;DHT22;6785;57.918;12.530;2023-03-03T05:58:08;-2.30;99.90
13426;DHT22;6785;57.918;12.530;2023-03-03T06:00:36;-2.20;99.90
13426;DHT22;6785;57.918;12.530;2023-03-03T06:03:03;-2.20;99.90
13426;DHT22;6785;57.918;12.530;2023-03-03T06:05:30;-2.30;99.90
13426;DHT22;6785;57.918;12.530;2023-03-03T06:07:56;-2.30;99.90
13426;DHT22;6785;57.918;12.530;2023-03-03T06:10:25;-2.30;99.90
13426;DHT22;6785;57.918;12.530;2023-03-03T06:12:52;-2.40;99.90
13426;DHT22;6785;57.918;12.530;2023-03-03T06:15:19;-2.40;99.90
13426;DHT22;6785;57.918;12.530;2023-03-03T06:17:46;-2.40;99.90
13426;DHT22;6785;57.918;12.530;2023-03-03T06:20:12;-2.40;99.90
13426;DHT22;6785;57.918;12.530;2023-03-03T06:22:39;-2.40;99.90
13426;DHT22;6785;57.918;12.530;2023-03-03T06:25:07;-2.40;99.90
13426;DHT22;6785;57.918;12.530;2023-03-03T06:27:35;-2.40;99.90
13426;DHT22;6785;57.918;12.530;2023-03-03T06:30:02;-2.40;99.90
13426;DHT22;6785;57.918;12.530;2023-03-03T06:32:29;-2.40;99.90
13426;DHT22;6785;57.918;12.530;2023-03-03T06:34:56;-2.40;99.90
13426;DHT22;6785;57.918;12.530;2023-03-03T06:37:22;-2.30;99.90
13426;DHT22;6785;57.918;12.530;2023-03-03T06:39:49;-2.20;99.90
13426;DHT22;6785;57.918;12.530;2023-03-03T06:42:17;-2.10;99.90
13426;DHT22;6785;57.918;12.530;2023-03-03T06:44:45;-2.10;99.90
13426;DHT22;6785;57.918;12.530;2023-03-03T06:47:12;-2.00;99.90
13426;DHT22;6785;57.918;12.530;2023-03-03T06:49:39;-2.00;99.90
13426;DHT22;6785;57.918;12.530;2023-03-03T06:52:11;-2.00;99.90
13426;DHT22;6785;57.918;12.530;2023-03-03T06:54:39;-1.90;99.90
13426;DHT22;6785;57.918;12.530;2023-03-03T06:57:15;-2.00;99.90
13426;DHT22;6785;57.918;12.530;2023-03-03T06:59:42;-2.00;99.90
13426;DHT22;6785;57.918;12.530;2023-03-03T07:02:14;-1.90;99.90
13426;DHT22;6785;57.918;12.530;2023-03-03T07:04:41;-1.80;99.90
13426;DHT22;6785;57.918;12.530;2023-03-03T07:07:14;-1.80;99.90
13426;DHT22;6785;57.918;12.530;2023-03-03T07:09:43;-1.80;99.90
13426;DHT22;6785;57.918;12.530;2023-03-03T07:12:12;-1.80;99.90
13426;DHT22;6785;57.918;12.530;2023-03-03T07:14:42;-1.70;99.90
13426;DHT22;6785;57.918;12.530;2023-03-03T07:17:15;-1.60;99.90
13426;DHT22;6785;57.918;12.530;2023-03-03T07:19:43;-1.50;99.90
13426;DHT22;6785;57.918;12.530;2023-03-03T07:22:15;-1.40;99.90
13426;DHT22;6785;57.918;12.530;2023-03-03T07:24:44;-1.40;99.90
13426;DHT22;6785;57.918;12.530;2023-03-03T07:27:13;-1.30;99.90
13426;DHT22;6785;57.918;12.530;2023-03-03T07:29:42;-1.20;99.90
13426;DHT22;6785;57.918;12.530;2023-03-03T07:32:34;-1.00;99.90
13426;DHT22;6785;57.918;12.530;2023-03-03T07:35:20;-1.00;99.90
13426;DHT22;6785;57.918;12.530;2023-03-03T07:37:50;-1.00;99.90
13426;DHT22;6785;57.918;12.530;2023-03-03T07:40:35;-0.90;99.90
13426;DHT22;6785;57.918;12.530;2023-03-03T07:43:22;-0.70;99.90
13426;DHT22;6785;57.918;12.530;2023-03-03T07:45:52;-0.60;99.90
13426;DHT22;6785;57.918;12.530;2023-03-03T07:48:25;-0.40;99.90
13426;DHT22;6785;57.918;12.530;2023-03-03T07:50:56;-0.30;99.90
13426;DHT22;6785;57.918;12.530;2023-03-03T07:53:27;-0.20;99.90
13426;DHT22;6785;57.918;12.530;2023-03-03T07:55:54;-0.10;99.90
13426;DHT22;6785;57.918;12.530;2023-03-03T07:58:26;0.00;99.90
13426;DHT22;6785;57.918;12.530;2023-03-03T08:03:59;0.00;99.90
13426;DHT22;6785;57.918;12.530;2023-03-03T08:06:41;0.10;99.90
13426;DHT22;6785;57.918;12.530;2023-03-03T08:09:36;0.30;99.90
13426;DHT22;6785;57.918;12.530;2023-03-03T08:12:19;0.50;99.90
13426;DHT22;6785;57.918;12.530;2023-03-03T08:14:50;0.70;99.90
13426;DHT22;6785;57.918;12.530;2023-03-03T08:17:20;0.80;99.90
13426;DHT22;6785;57.918;12.530;2023-03-03T08:19:49;0.80;99.90
13426;DHT22;6785;57.918;12.530;2023-03-03T08:22:18;0.80;99.90
13426;DHT22;6785;57.918;12.530;2023-03-03T08:24:45;0.90;99.90
13426;DHT22;6785;57.918;12.530;2023-03-03T08:27:12;1.00;99.90
13426;DHT22;6785;57.918;12.530;2023-03-03T08:29:38;1.00;99.90
13426;DHT22;6785;57.918;12.530;2023-03-03T08:32:05;1.00;99.90
13426;DHT22;6785;57.918;12.530;2023-03-03T08:34:32;1.00;99.90
13426;DHT22;6785;57.918;12.530;2023-03-03T08:37:00;1.00;99.90
13426;DHT22;6785;57.918;12.530;2023-03-03T08:39:27;1.00;99.90
13426;DHT22;6785;57.918;12.530;2023-03-03T08:41:53;1.10;99.90
13426;DHT22;6785;57.918;12.530;2023-03-03T08:44:20;1.10;99.90
13426;DHT22;6785;57.918;12.530;2023-03-03T08:46:47;1.00;99.90
13426;DHT22;6785;57.918;12.530;2023-03-03T08:49:14;1.10;99.90
13426;DHT22;6785;57.918;12.530;2023-03-03T08:51:41;1.20;99.90
13426;DHT22;6785;57.918;12.530;2023-03-03T08:54:09;1.20;99.90
13426;DHT22;6785;57.918;12.530;2023-03-03T08:56:36;1.30;99.90
13426;DHT22;6785;57.918;12.530;2023-03-03T08:59:02;1.20;99.90
13426;DHT22;6785;57.918;12.530;2023-03-03T09:01:29;1.20;99.90
13426;DHT22;6785;57.918;12.530;2023-03-03T09:03:56;1.30;99.90
13426;DHT22;6785;57.918;12.530;2023-03-03T09:06:23;1.40;99.90
13426;DHT22;6785;57.918;12.530;2023-03-03T09:08:49;1.50;99.90
13426;DHT22;6785;57.918;12.530;2023-03-03T09:11:23;1.70;99.90
13426;DHT22;6785;57.918;12.530;2023-03-03T09:13:50;1.90;99.90
13426;DHT22;6785;57.918;12.530;2023-03-03T09:16:19;2.10;99.90
13426;DHT22;6785;57.918;12.530;2023-03-03T09:18:46;2.20;99.90
13426;DHT22;6785;57.918;12.530;2023-03-03T09:21:21;2.30;99.90
13426;DHT22;6785;57.918;12.530;2023-03-03T09:23:53;2.40;99.90
13426;DHT22;6785;57.918;12.530;2023-03-03T09:26:27;2.40;99.90
13426;DHT22;6785;57.918;12.530;2023-03-03T09:28:59;2.50;99.90
13426;DHT22;6785;57.918;12.530;2023-03-03T09:31:37;2.60;99.90
13426;DHT22;6785;57.918;12.530;2023-03-03T09:34:18;2.60;99.90
13426;DHT22;6785;57.918;12.530;2023-03-03T09:36:46;2.80;99.90
13426;DHT22;6785;57.918;12.530;2023-03-03T09:39:16;2.90;99.90
13426;DHT22;6785;57.918;12.530;2023-03-03T09:42:11;3.00;99.90
13426;DHT22;6785;57.918;12.530;2023-03-03T09:47:55;3.20;99.90
13426;DHT22;6785;57.918;12.530;2023-03-03T09:50:33;3.30;99.90
13426;DHT22;6785;57.918;12.530;2023-03-03T09:53:13;3.40;99.90
13426;DHT22;6785;57.918;12.530;2023-03-03T09:55:50;3.50;99.90
13426;DHT22;6785;57.918;12.530;2023-03-03T10:01:27;3.60;99.90
13426;DHT22;6785;57.918;12.530;2023-03-03T10:04:06;3.80;99.90
13426;DHT22;6785;57.918;12.530;2023-03-03T10:06:39;3.80;99.90
13426;DHT22;6785;57.918;12.530;2023-03-03T10:12:16;3.90;99.90
13426;DHT22;6785;57.918;12.530;2023-03-03T10:15:02;4.00;99.90
13426;DHT22;6785;57.918;12.530;2023-03-03T10:17:44;4.00;99.90
13426;DHT22;6785;57.918;12.530;2023-03-03T10:20:24;4.10;99.90
13426;DHT22;6785;57.918;12.530;2023-03-03T10:22:54;4.10;99.90
13426;DHT22;6785;57.918;12.530;2023-03-03T10:25:27;4.20;99.90
13426;DHT22;6785;57.918;12.530;2023-03-03T10:31:02;4.40;99.90
13426;DHT22;6785;57.918;12.530;2023-03-03T10:33:40;4.40;99.90
13426;DHT22;6785;57.918;12.530;2023-03-03T10:36:33;4.30;99.90
13426;DHT22;6785;57.918;12.530;2023-03-03T10:39:15;4.40;99.90
13426;DHT22;6785;57.918;12.530;2023-03-03T10:41:57;4.40;99.90
13426;DHT22;6785;57.918;12.530;2023-03-03T10:44:37;4.50;99.90
13426;DHT22;6785;57.918;12.530;2023-03-03T10:47:33;4.60;99.90
13426;DHT22;6785;57.918;12.530;2023-03-03T10:50:14;4.70;99.90
13426;DHT22;6785;57.918;12.530;2023-03-03T10:52:46;4.80;99.90
13426;DHT22;6785;57.918;12.530;2023-03-03T10:58:28;5.00;99.90
13426;DHT22;6785;57.918;12.530;2023-03-03T11:01:05;5.10;99.90
13426;DHT22;6785;57.918;12.530;2023-03-03T11:04:12;5.10;99.90
13426;DHT22;6785;57.918;12.530;2023-03-03T11:06:48;5.20;99.90
13426;DHT22;6785;57.918;12.530;2023-03-03T11:09:30;5.30;99.90
13426;DHT22;6785;57.918;12.530;2023-03-03T11:12:05;5.40;99.90
13426;DHT22;6785;57.918;12.530;2023-03-03T11:14:41;5.40;99.90
13426;DHT22;6785;57.918;12.530;2023-03-03T11:17:16;5.50;99.90
13426;DHT22;6785;57.918;12.530;2023-03-03T11:19:56;5.60;99.90
13426;DHT22;6785;57.918;12.530;2023-03-03T11:22:33;5.80;99.90
13426;DHT22;6785;57.918;12.530;2023-03-03T11:25:14;5.80;99.90
13426;DHT22;6785;57.918;12.530;2023-03-03T11:28:08;5.90;99.90
13426;DHT22;6785;57.918;12.530;2023-03-03T11:30:48;6.00;99.90
13426;DHT22;6785;57.918;12.530;2023-03-03T11:33:20;6.10;99.90
13426;DHT22;6785;57.918;12.530;2023-03-03T11:35:56;6.10;99.90
13426;DHT22;6785;57.918;12.530;2023-03-03T11:38:50;6.10;99.90
13426;DHT22;6785;57.918;12.530;2023-03-03T11:41:28;6.20;99.90
13426;DHT22;6785;57.918;12.530;2023-03-03T11:43:59;6.20;99.90
13426;DHT22;6785;57.918;12.530;2023-03-03T11:46:31;6.10;99.90
13426;DHT22;6785;57.918;12.530;2023-03-03T11:49:02;6.20;99.90
13426;DHT22;6785;57.918;12.530;2023-03-03T11:51:40;6.10;99.90
13426;DHT22;6785;57.918;12.530;2023-03-03T11:54:14;5.90;99.90
13426;DHT22;6785;57.918;12.530;2023-03-03T11:56:46;5.90;99.90
13426;DHT22;6785;57.918;12.530;2023-03-03T11:59:41;6.00;99.90
13426;DHT22;6785;57.918;12.530;2023-03-03T12:02:23;5.90;99.90
13426;DHT22;6785;57.918;12.530;2023-03-03T12:04:54;5.80;99.90
13426;DHT22;6785;57.918;12.530;2023-03-03T12:07:30;5.90;99.90
13426;DHT22;6785;57.918;12.530;2023-03-03T12:10:06;5.90;99.90
13426;DHT22;6785;57.918;12.530;2023-03-03T12:12:40;5.80;99.90
13426;DHT22;6785;57.918;12.530;2023-03-03T12:15:16;5.90;99.90
13426;DHT22;6785;57.918;12.530;2023-03-03T12:20:53;5.90;99.90
13426;DHT22;6785;57.918;12.530;2023-03-03T12:23:42;6.10;99.90
13426;DHT22;6785;57.918;12.530;2023-03-03T12:26:16;6.10;99.90
13426;DHT22;6785;57.918;12.530;2023-03-03T12:28:50;6.00;99.90
13426;DHT22;6785;57.918;12.530;2023-03-03T12:31:25;6.10;99.90
13426;DHT22;6785;57.918;12.530;2023-03-03T12:33:56;6.20;99.90
13426;DHT22;6785;57.918;12.530;2023-03-03T12:36:42;6.20;99.90
13426;DHT22;6785;57.918;12.530;2023-03-03T12:39:21;6.30;99.90
13426;DHT22;6785;57.918;12.530;2023-03-03T12:41:57;6.20;99.90
13426;DHT22;6785;57.918;12.530;2023-03-03T12:44:29;6.30;99.90
13426;DHT22;6785;57.918;12.530;2023-03-03T12:47:00;6.30;99.90
13426;DHT22;6785;57.918;12.530;2023-03-03T12:49:35;6.20;99.90
13426;DHT22;6785;57.918;12.530;2023-03-03T12:52:10;6.10;99.90
13426;DHT22;6785;57.918;12.530;2023-03-03T12:54:49;6.20;99.90
13426;DHT22;6785;57.918;12.530;2023-03-03T12:57:28;6.20;99.90
13426;DHT22;6785;57.918;12.530;2023-03-03T13:00:14;6.10;99.90
13426;DHT22;6785;57.918;12.530;2023-03-03T13:02:55;6.10;99.90
13426;DHT22;6785;57.918;12.530;2023-03-03T13:05:26;6.10;99.90
13426;DHT22;6785;57.918;12.530;2023-03-03T13:08:02;6.10;99.90
13426;DHT22;6785;57.918;12.530;2023-03-03T13:10:39;6.10;99.90
13426;DHT22;6785;57.918;12.530;2023-03-03T13:13:13;6.00;99.90
13426;DHT22;6785;57.918;12.530;2023-03-03T13:15:44;6.00;99.90
13426;DHT22;6785;57.918;12.530;2023-03-03T13:18:29;6.10;99.90
13426;DHT22;6785;57.918;12.530;2023-03-03T13:21:02;6.20;99.90
13426;DHT22;6785;57.918;12.530;2023-03-03T13:23:39;6.20;99.90
13426;DHT22;6785;57.918;12.530;2023-03-03T13:26:12;6.30;99.90
13426;DHT22;6785;57.918;12.530;2023-03-03T13:28:57;6.30;99.90
13426;DHT22;6785;57.918;12.530;2023-03-03T13:31:30;6.30;99.90
13426;DHT22;6785;57.918;12.530;2023-03-03T13:33:59;6.30;99.90
13426;DHT22;6785;57.918;12.530;2023-03-03T13:36:30;6.30;99.90
13426;DHT22;6785;57.918;12.530;2023-03-03T13:39:03;6.40;99.90
13426;DHT22;6785;57.918;12.530;2023-03-03T13:41:38;6.40;99.90
13426;DHT22;6785;57.918;12.530;2023-03-03T13:44:12;6.50;99.90
13426;DHT22;6785;57.918;12.530;2023-03-03T13:46:47;6.40;99.90
13426;DHT22;6785;57.918;12.530;2023-03-03T13:52:11;6.30;99.90
13426;DHT22;6785;57.918;12.530;2023-03-03T13:57:44;6.30;99.90
13426;DHT22;6785;57.918;12.530;2023-03-03T14:00:20;6.30;99.90
13426;DHT22;6785;57.918;12.530;2023-03-03T14:03:06;6.20;99.90
13426;DHT22;6785;57.918;12.530;2023-03-03T14:05:36;6.20;99.90
13426;DHT22;6785;57.918;12.530;2023-03-03T14:08:11;6.30;99.90
13426;DHT22;6785;57.918;12.530;2023-03-03T14:10:48;6.30;99.90
13426;DHT22;6785;57.918;12.530;2023-03-03T14:13:22;6.20;99.90
13426;DHT22;6785;57.918;12.530;2023-03-03T14:15:55;6.20;99.90
13426;DHT22;6785;57.918;12.530;2023-03-03T14:18:27;6.20;99.90
13426;DHT22;6785;57.918;12.530;2023-03-03T14:20:58;6.20;99.90
13426;DHT22;6785;57.918;12.530;2023-03-03T14:23:31;6.20;99.90
13426;DHT22;6785;57.918;12.530;2023-03-03T14:26:06;6.10;99.90
13426;DHT22;6785;57.918;12.530;2023-03-03T14:28:39;6.20;99.90
13426;DHT22;6785;57.918;12.530;2023-03-03T14:31:17;6.20;99.90
13426;DHT22;6785;57.918;12.530;2023-03-03T14:33:56;6.20;99.90
13426;DHT22;6785;57.918;12.530;2023-03-03T14:36:28;6.20;99.90
13426;DHT22;6785;57.918;12.530;2023-03-03T14:38:56;6.20;99.90
13426;DHT22;6785;57.918;12.530;2023-03-03T14:41:35;6.20;99.90
13426;DHT22;6785;57.918;12.530;2023-03-03T14:44:23;6.20;99.90
13426;DHT22;6785;57.918;12.530;2023-03-03T14:47:16;6.20;99.90
13426;DHT22;6785;57.918;12.530;2023-03-03T14:49:45;6.10;99.90
13426;DHT22;6785;57.918;12.530;2023-03-03T14:52:21;6.00;99.90
13426;DHT22;6785;57.918;12.530;2023-03-03T14:54:50;6.00;99.90
13426;DHT22;6785;57.918;12.530;2023-03-03T14:57:18;6.00;99.90
13426;DHT22;6785;57.918;12.530;2023-03-03T14:59:59;5.90;99.90
13426;DHT22;6785;57.918;12.530;2023-03-03T15:02:35;5.90;99.90
13426;DHT22;6785;57.918;12.530;2023-03-03T15:05:22;6.00;99.90
13426;DHT22;6785;57.918;12.530;2023-03-03T15:07:52;5.90;99.90
13426;DHT22;6785;57.918;12.530;2023-03-03T15:10:34;6.00;99.90
13426;DHT22;6785;57.918;12.530;2023-03-03T15:13:23;6.00;99.90
13426;DHT22;6785;57.918;12.530;2023-03-03T15:16:09;5.90;99.90
13426;DHT22;6785;57.918;12.530;2023-03-03T15:19:09;5.80;99.90
13426;DHT22;6785;57.918;12.530;2023-03-03T15:21:46;5.80;99.90
13426;DHT22;6785;57.918;12.530;2023-03-03T15:24:21;5.70;99.90
13426;DHT22;6785;57.918;12.530;2023-03-03T15:26:53;5.60;99.90
13426;DHT22;6785;57.918;12.530;2023-03-03T15:29:24;5.60;99.90
13426;DHT22;6785;57.918;12.530;2023-03-03T15:31:59;5.60;99.90
13426;DHT22;6785;57.918;12.530;2023-03-03T15:34:36;5.50;99.90
13426;DHT22;6785;57.918;12.530;2023-03-03T15:37:12;5.50;99.90
13426;DHT22;6785;57.918;12.530;2023-03-03T15:39:46;5.50;99.90
13426;DHT22;6785;57.918;12.530;2023-03-03T15:42:20;5.50;99.90
13426;DHT22;6785;57.918;12.530;2023-03-03T15:44:55;5.40;99.90
13426;DHT22;6785;57.918;12.530;2023-03-03T15:47:38;5.40;99.90
13426;DHT22;6785;57.918;12.530;2023-03-03T15:50:25;5.40;99.90
13426;DHT22;6785;57.918;12.530;2023-03-03T15:53:02;5.30;99.90
13426;DHT22;6785;57.918;12.530;2023-03-03T15:55:51;5.30;99.90
13426;DHT22;6785;57.918;12.530;2023-03-03T15:58:50;5.30;99.90
13426;DHT22;6785;57.918;12.530;2023-03-03T16:01:26;5.30;99.90
13426;DHT22;6785;57.918;12.530;2023-03-03T16:03:58;5.20;99.90
13426;DHT22;6785;57.918;12.530;2023-03-03T16:06:33;5.20;99.90
13426;DHT22;6785;57.918;12.530;2023-03-03T16:09:14;5.10;99.90
13426;DHT22;6785;57.918;12.530;2023-03-03T16:11:45;5.00;99.90
13426;DHT22;6785;57.918;12.530;2023-03-03T16:14:37;5.00;99.90
13426;DHT22;6785;57.918;12.530;2023-03-03T16:17:16;5.00;99.90
13426;DHT22;6785;57.918;12.530;2023-03-03T16:19:54;5.00;99.90
13426;DHT22;6785;57.918;12.530;2023-03-03T16:22:30;5.00;99.90
13426;DHT22;6785;57.918;12.530;2023-03-03T16:25:14;4.90;99.90
13426;DHT22;6785;57.918;12.530;2023-03-03T16:27:50;4.90;99.90
13426;DHT22;6785;57.918;12.530;2023-03-03T16:30:30;4.90;99.90
13426;DHT22;6785;57.918;12.530;2023-03-03T16:33:08;4.80;99.90
13426;DHT22;6785;57.918;12.530;2023-03-03T16:35:42;4.90;99.90
13426;DHT22;6785;57.918;12.530;2023-03-03T16:38:12;4.80;99.90